createdAt,value
2022-08-17T00:02:26.216Z,4.82
2022-08-17T00:04:55.272Z,4.85
2022-08-17T00:07:22.723Z,4.68
2022-08-17T00:09:49.242Z,4.82
2022-08-17T00:12:42.744Z,4.53
2022-08-17T00:15:02.448Z,4.50
2022-08-17T00:17:29.083Z,4.68
2022-08-17T00:19:55.585Z,5.00
2022-08-17T00:22:31.974Z,5.05
2022-08-17T00:25:07.061Z,4.60
2022-08-17T00:27:33.659Z,4.60
2022-08-17T00:30:00.389Z,5.03
2022-08-17T00:33:14.352Z,5.13
2022-08-17T00:35:18.266Z,4.50
2022-08-17T00:37:44.853Z,4.72
2022-08-17T00:40:14.668Z,4.47
2022-08-17T00:42:42.739Z,4.57
2022-08-17T00:45:17.583Z,4.60
2022-08-17T00:47:44.653Z,4.90
2022-08-17T00:50:14.092Z,5.00
2022-08-17T00:52:52.616Z,4.60
2022-08-17T00:55:19.981Z,4.72
2022-08-17T00:57:53.461Z,4.05
2022-08-17T01:00:32.347Z,4.63
2022-08-17T01:03:26.000Z,4.70
2022-08-17T01:05:56.718Z,4.60
2022-08-17T01:08:27.331Z,4.47
2022-08-17T01:10:59.779Z,4.03
2022-08-17T01:13:41.202Z,5.05
2022-08-17T01:16:20.329Z,4.57
2022-08-17T01:18:50.553Z,5.07
2022-08-17T01:21:42.071Z,4.85
2022-08-17T01:24:08.938Z,4.95
2022-08-17T01:26:37.958Z,4.75
2022-08-17T01:29:06.048Z,4.68
2022-08-17T01:31:38.743Z,4.70
2022-08-17T01:34:10.615Z,4.30
2022-08-17T01:36:39.788Z,4.40
2022-08-17T01:39:11.654Z,4.70
2022-08-17T01:41:40.940Z,4.85
2022-08-17T01:44:08.809Z,4.70
2022-08-17T01:46:37.106Z,4.45
2022-08-17T01:49:09.176Z,4.35
2022-08-17T01:51:35.781Z,4.63
2022-08-17T01:54:05.572Z,4.13
2022-08-17T01:56:35.023Z,4.80
2022-08-17T01:59:01.570Z,4.50
2022-08-17T02:01:30.598Z,4.93
2022-08-17T02:04:00.754Z,5.22
2022-08-17T02:06:52.675Z,4.97
2022-08-17T02:09:25.867Z,4.40
2022-08-17T02:11:56.887Z,4.68
2022-08-17T02:14:23.689Z,4.28
2022-08-17T02:16:50.410Z,5.05
2022-08-17T02:19:17.143Z,4.82
2022-08-17T02:21:47.988Z,4.47
2022-08-17T02:24:58.685Z,4.20
2022-08-17T02:27:06.830Z,5.10
2022-08-17T02:29:33.398Z,4.47
2022-08-17T02:32:00.156Z,4.88
2022-08-17T02:34:27.447Z,4.20
2022-08-17T02:36:54.044Z,4.43
2022-08-17T02:39:20.575Z,3.97
2022-08-17T02:41:47.344Z,3.75
2022-08-17T02:44:13.900Z,4.57
2022-08-17T02:47:00.811Z,3.80
2022-08-17T02:49:27.459Z,4.68
2022-08-17T02:51:53.951Z,4.20
2022-08-17T02:54:39.953Z,4.45
2022-08-17T02:57:10.017Z,4.93
2022-08-17T02:59:37.749Z,4.78
2022-08-17T03:02:06.204Z,4.05
2022-08-17T03:04:35.135Z,5.03
2022-08-17T03:07:02.601Z,4.40
2022-08-17T03:09:29.118Z,4.45
2022-08-17T03:11:56.130Z,5.00
2022-08-17T03:14:26.160Z,4.32
2022-08-17T03:16:52.990Z,4.07
2022-08-17T03:19:19.636Z,4.38
2022-08-17T03:21:46.192Z,3.72
2022-08-17T03:24:21.554Z,4.05
2022-08-17T03:26:55.121Z,4.47
2022-08-17T03:29:21.766Z,4.15
2022-08-17T03:31:49.673Z,3.85
2022-08-17T03:34:17.391Z,4.88
2022-08-17T03:36:44.368Z,4.25
2022-08-17T03:39:11.033Z,4.95
2022-08-17T03:41:38.829Z,4.85
2022-08-17T03:44:05.410Z,3.78
2022-08-17T03:46:50.677Z,4.00
2022-08-17T03:49:35.816Z,4.38
2022-08-17T03:52:20.795Z,3.97
2022-08-17T03:55:06.159Z,3.72
2022-08-17T03:57:32.701Z,4.03
2022-08-17T03:59:59.773Z,3.55
2022-08-17T04:02:33.687Z,3.90
2022-08-17T04:05:01.202Z,3.25
2022-08-17T04:07:30.237Z,3.60
2022-08-17T04:09:58.054Z,4.10
2022-08-17T04:12:26.373Z,3.60
2022-08-17T04:14:55.038Z,4.10
2022-08-17T04:17:29.108Z,4.07
2022-08-17T04:19:56.327Z,4.30
2022-08-17T04:22:32.868Z,3.67
2022-08-17T04:25:18.961Z,4.00
2022-08-17T04:27:45.500Z,3.97
2022-08-17T04:30:13.009Z,4.18
2022-08-17T04:33:07.391Z,3.88
2022-08-17T04:35:41.141Z,3.83
2022-08-17T04:38:10.224Z,4.00
2022-08-17T04:40:55.432Z,4.00
2022-08-17T04:43:24.871Z,3.83
2022-08-17T04:45:57.384Z,3.67
2022-08-17T04:48:29.737Z,3.60
2022-08-17T04:51:04.142Z,3.70
2022-08-17T04:53:30.767Z,4.10
2022-08-17T04:55:58.987Z,3.40
2022-08-17T04:58:25.571Z,4.18
2022-08-17T05:00:52.683Z,3.40
2022-08-17T05:03:19.467Z,4.82
2022-08-17T05:05:49.519Z,4.40
2022-08-17T05:08:19.095Z,3.88
2022-08-17T05:10:47.389Z,3.90
2022-08-17T05:13:19.675Z,3.60
2022-08-17T05:15:48.291Z,3.58
2022-08-17T05:18:16.611Z,3.65
2022-08-17T05:20:43.538Z,3.92
2022-08-17T05:23:12.767Z,3.33
2022-08-17T05:25:42.433Z,3.55
2022-08-17T05:28:14.845Z,4.55
2022-08-17T05:30:43.339Z,3.17
2022-08-17T05:33:20.766Z,3.40
2022-08-17T05:35:51.613Z,3.08
2022-08-17T05:38:20.259Z,3.67
2022-08-17T05:40:47.303Z,3.33
2022-08-17T05:43:23.265Z,3.33
2022-08-17T05:45:57.618Z,3.85
2022-08-17T05:48:35.530Z,4.63
2022-08-17T05:51:28.660Z,4.15
2022-08-17T05:54:14.564Z,4.35
2022-08-17T05:56:43.955Z,4.50
2022-08-17T05:59:29.311Z,3.50
2022-08-17T06:01:58.795Z,4.22
2022-08-17T06:04:35.972Z,3.83
2022-08-17T06:07:16.641Z,3.75
2022-08-17T06:09:43.159Z,3.92
2022-08-17T06:12:39.455Z,3.95
2022-08-17T06:15:12.741Z,4.28
2022-08-17T06:17:39.978Z,4.32
2022-08-17T06:20:14.236Z,3.83
2022-08-17T06:22:50.828Z,4.63
2022-08-17T06:25:23.444Z,3.88
2022-08-17T06:27:56.348Z,4.10
2022-08-17T06:30:27.489Z,4.22
2022-08-17T06:33:02.739Z,4.00
2022-08-17T06:35:34.654Z,4.05
2022-08-17T06:38:49.857Z,4.00
2022-08-17T06:41:28.531Z,4.28
2022-08-17T06:44:43.168Z,5.65
2022-08-17T06:47:08.942Z,4.97
2022-08-17T06:49:55.221Z,5.72
2022-08-17T06:52:47.241Z,6.07
2022-08-17T06:55:21.234Z,5.57
2022-08-17T06:57:53.532Z,5.97
2022-08-17T07:00:23.868Z,6.50
2022-08-17T07:02:58.216Z,5.80
2022-08-17T07:05:37.672Z,5.77
2022-08-17T07:08:38.424Z,5.97
2022-08-17T07:11:38.309Z,6.47
2022-08-17T07:14:37.965Z,5.97
2022-08-17T07:17:13.879Z,6.50
2022-08-17T07:19:45.336Z,6.25
2022-08-17T07:22:14.841Z,6.72
2022-08-17T07:24:51.422Z,6.25
2022-08-17T07:27:22.482Z,6.55
2022-08-17T07:29:53.645Z,6.25
2022-08-17T07:32:29.144Z,6.78
2022-08-17T07:35:40.747Z,7.03
2022-08-17T07:38:26.130Z,6.13
2022-08-17T07:41:03.101Z,6.07
2022-08-17T07:43:41.951Z,6.95
2022-08-17T07:46:30.301Z,6.35
2022-08-17T07:49:08.674Z,7.65
2022-08-17T07:51:44.241Z,6.45
2022-08-17T07:54:23.049Z,7.90
2022-08-17T07:56:52.403Z,7.57
2022-08-17T07:59:33.816Z,7.63
2022-08-17T08:02:05.321Z,7.95
2022-08-17T08:07:37.336Z,7.45
2022-08-17T08:10:13.864Z,8.48
2022-08-17T08:12:44.024Z,7.82
2022-08-17T08:15:21.820Z,7.03
2022-08-17T08:17:55.369Z,7.88
2022-08-17T08:20:53.494Z,6.57
2022-08-17T08:23:59.229Z,6.95
2022-08-17T08:26:40.579Z,9.13
2022-08-17T08:29:18.176Z,7.55
2022-08-17T08:31:57.169Z,6.80
2022-08-17T08:35:02.777Z,8.93
2022-08-17T08:37:49.885Z,7.83
2022-08-17T08:40:31.912Z,7.25
2022-08-17T08:43:30.494Z,7.88
2022-08-17T08:46:21.375Z,7.93
2022-08-17T08:49:39.061Z,8.68
2022-08-17T08:52:31.083Z,8.82
2022-08-17T08:55:10.586Z,8.23
2022-08-17T08:57:43.986Z,9.38
2022-08-17T09:00:16.140Z,7.95
2022-08-17T09:02:45.754Z,8.68
2022-08-17T09:05:57.070Z,9.57
2022-08-17T09:08:47.779Z,7.35
2022-08-17T09:12:02.412Z,8.57
2022-08-17T09:14:45.171Z,8.23
2022-08-17T09:17:29.794Z,7.75
2022-08-17T09:20:27.196Z,9.02
2022-08-17T09:23:03.359Z,9.13
2022-08-17T09:25:34.889Z,8.40
2022-08-17T09:28:06.500Z,8.60
2022-08-17T09:30:43.554Z,9.93
2022-08-17T09:33:12.832Z,9.75
2022-08-17T09:35:46.822Z,8.48
2022-08-17T09:38:35.494Z,8.15
2022-08-17T09:41:02.080Z,8.35
2022-08-17T09:43:38.875Z,9.25
2022-08-17T09:46:17.070Z,9.32
2022-08-17T09:48:50.782Z,10.15
2022-08-17T09:51:22.292Z,10.40
2022-08-17T09:53:50.113Z,8.73
2022-08-17T09:56:28.863Z,9.25
2022-08-17T09:59:20.077Z,10.07
2022-08-17T10:02:06.221Z,10.27
2022-08-17T10:04:39.752Z,10.20
2022-08-17T10:07:25.134Z,11.13
2022-08-17T10:10:02.860Z,10.48
2022-08-17T10:12:47.874Z,10.57
2022-08-17T10:15:22.518Z,9.80
2022-08-17T10:17:56.356Z,10.80
2022-08-17T10:20:42.880Z,11.50
2022-08-17T10:23:45.124Z,9.90
2022-08-17T10:26:18.753Z,9.70
2022-08-17T10:28:48.027Z,11.02
2022-08-17T10:31:40.503Z,9.93
2022-08-17T10:34:41.485Z,10.77
2022-08-17T10:37:28.237Z,9.70
2022-08-17T10:40:24.522Z,11.23
2022-08-17T10:42:56.046Z,11.07
2022-08-17T10:45:26.370Z,10.85
2022-08-17T10:48:05.876Z,10.38
2022-08-17T10:50:48.001Z,10.07
2022-08-17T10:53:32.905Z,11.65
2022-08-17T10:56:14.493Z,11.18
2022-08-17T10:58:47.062Z,11.52
2022-08-17T11:01:13.750Z,12.20
2022-08-17T11:03:55.812Z,13.20
2022-08-17T11:06:25.656Z,12.82
2022-08-17T11:09:00.916Z,12.55
2022-08-17T11:11:47.279Z,13.13
2022-08-17T11:14:36.075Z,13.63
2022-08-17T11:17:21.977Z,13.30
2022-08-17T11:20:13.266Z,15.20
2022-08-17T11:22:59.020Z,13.43
2022-08-17T11:25:38.539Z,13.63
2022-08-17T11:28:06.956Z,12.20
2022-08-17T11:30:50.968Z,14.93
2022-08-17T11:34:13.767Z,14.65
2022-08-17T11:36:46.569Z,15.15
2022-08-17T11:39:36.988Z,14.52
2022-08-17T11:42:09.826Z,16.90
2022-08-17T11:44:51.173Z,18.30
2022-08-17T11:48:26.562Z,16.63
2022-08-17T11:51:35.629Z,16.55
2022-08-17T11:54:34.058Z,17.13
2022-08-17T11:57:27.377Z,18.08
2022-08-17T11:59:55.430Z,16.88
2022-08-17T12:02:32.622Z,17.92
2022-08-17T12:05:14.377Z,18.40
2022-08-17T12:07:53.203Z,17.52
2022-08-17T12:10:31.665Z,17.30
2022-08-17T12:13:14.120Z,19.15
2022-08-17T12:15:50.158Z,17.60
2022-08-17T12:18:24.605Z,19.17
2022-08-17T12:21:28.511Z,18.73
2022-08-17T12:23:59.956Z,18.45
2022-08-17T12:26:31.553Z,18.00
2022-08-17T12:29:09.348Z,17.05
2022-08-17T12:31:47.649Z,17.75
2022-08-17T12:34:27.245Z,21.42
2022-08-17T12:37:01.310Z,19.55
2022-08-17T12:39:30.038Z,18.98
2022-08-17T12:42:03.948Z,18.42
2022-08-17T12:44:36.269Z,19.27
2022-08-17T12:47:22.827Z,18.40
2022-08-17T12:50:08.167Z,18.42
2022-08-17T12:52:59.740Z,19.02
2022-08-17T12:55:32.711Z,20.80
2022-08-17T12:58:01.809Z,19.92
2022-08-17T13:00:37.918Z,20.33
2022-08-17T13:03:09.526Z,20.60
2022-08-17T13:05:42.000Z,22.52
2022-08-17T13:08:17.980Z,21.08
2022-08-17T13:10:54.891Z,22.35
2022-08-17T13:13:26.710Z,21.77
2022-08-17T13:16:01.781Z,23.75
2022-08-17T13:18:45.411Z,21.10
2022-08-17T13:21:23.877Z,24.83
2022-08-17T13:24:13.662Z,23.73
2022-08-17T13:26:45.374Z,22.83
2022-08-17T13:29:25.980Z,24.75
2022-08-17T13:32:13.503Z,24.58
2022-08-17T13:35:13.217Z,24.05
2022-08-17T13:37:35.159Z,26.85
2022-08-17T13:40:07.742Z,24.52
2022-08-17T13:42:52.262Z,23.25
2022-08-17T13:45:35.193Z,26.52
2022-08-17T13:48:11.121Z,27.38
2022-08-17T13:53:26.088Z,26.65
2022-08-17T13:56:00.778Z,27.15
2022-08-17T13:58:51.257Z,28.33
2022-08-17T14:01:39.421Z,26.88
2022-08-17T14:04:15.243Z,26.27
2022-08-17T14:06:55.423Z,25.20
2022-08-17T14:09:26.158Z,26.20
2022-08-17T14:11:55.398Z,24.83
2022-08-17T14:14:23.172Z,26.52
2022-08-17T14:16:51.760Z,26.83
2022-08-17T14:19:19.390Z,25.90
2022-08-17T14:21:46.704Z,25.98
2022-08-17T14:24:22.949Z,26.48
2022-08-17T14:26:52.277Z,25.80
2022-08-17T14:29:20.516Z,28.45
2022-08-17T14:31:48.526Z,30.27
2022-08-17T14:34:20.460Z,29.10
2022-08-17T14:36:48.419Z,24.95
2022-08-17T14:39:16.424Z,26.90
2022-08-17T14:41:43.536Z,24.75
2022-08-17T14:44:13.430Z,28.20
2022-08-17T14:46:44.418Z,28.10
2022-08-17T14:49:13.336Z,27.10
2022-08-17T14:51:43.680Z,26.85
2022-08-17T14:54:11.895Z,26.67
2022-08-17T14:57:04.679Z,25.20
2022-08-17T14:59:45.581Z,26.40
2022-08-17T15:02:13.104Z,26.10
2022-08-17T15:04:44.936Z,26.90
2022-08-17T15:07:12.235Z,26.92
2022-08-17T15:09:39.004Z,28.05
2022-08-17T15:12:08.930Z,27.13
2022-08-17T15:14:35.891Z,27.70
2022-08-17T15:17:03.548Z,32.22
2022-08-17T15:19:30.200Z,27.58
2022-08-17T15:21:56.810Z,26.85
2022-08-17T15:24:23.379Z,25.60
2022-08-17T15:26:50.143Z,25.45
2022-08-17T15:29:16.954Z,23.73
2022-08-17T15:31:43.702Z,24.15
2022-08-17T15:34:10.283Z,24.60
2022-08-17T15:36:37.040Z,26.75
2022-08-17T15:39:05.420Z,30.88
2022-08-17T15:41:32.202Z,25.98
2022-08-17T15:43:58.880Z,24.17
2022-08-17T15:46:26.800Z,23.05
2022-08-17T15:48:58.086Z,23.30
2022-08-17T15:51:30.291Z,22.83
2022-08-17T15:54:04.528Z,20.50
2022-08-17T15:56:46.157Z,23.17
2022-08-17T15:59:12.766Z,20.13
2022-08-17T16:03:13.819Z,20.52
2022-08-17T16:04:29.662Z,21.25
2022-08-17T16:06:58.052Z,20.52
2022-08-17T16:09:24.673Z,19.58
2022-08-17T16:11:53.850Z,17.95
2022-08-17T16:14:22.325Z,17.15
2022-08-17T16:16:49.721Z,16.30
2022-08-17T16:19:16.254Z,15.93
2022-08-17T16:21:43.393Z,14.27
2022-08-17T16:24:13.307Z,13.95
2022-08-17T16:26:41.960Z,12.30
2022-08-17T16:29:08.910Z,12.93
2022-08-17T16:31:37.479Z,12.77
2022-08-17T16:34:16.953Z,12.75
2022-08-17T16:36:53.689Z,12.88
2022-08-17T16:39:26.733Z,12.13
2022-08-17T16:41:53.521Z,11.65
2022-08-17T16:44:21.645Z,11.45
2022-08-17T16:46:48.703Z,10.93
2022-08-17T16:49:35.116Z,11.45
2022-08-17T16:52:06.267Z,12.35
2022-08-17T16:54:33.392Z,10.93
2022-08-17T16:57:00.158Z,10.57
2022-08-17T16:59:31.020Z,10.07
2022-08-17T17:02:12.874Z,9.02
2022-08-17T17:04:54.272Z,10.40
2022-08-17T17:07:25.659Z,9.40
2022-08-17T17:09:55.361Z,9.70
2022-08-17T17:13:00.837Z,9.77
2022-08-17T17:15:10.583Z,6.97
2022-08-17T17:17:38.652Z,6.35
2022-08-17T17:20:21.077Z,6.10
2022-08-17T17:22:49.587Z,6.78
2022-08-17T17:25:16.199Z,6.70
2022-08-17T17:28:01.882Z,6.55
2022-08-17T17:30:38.121Z,6.45
2022-08-17T17:33:14.510Z,7.32
2022-08-17T17:35:46.115Z,7.35
2022-08-17T17:38:21.358Z,6.55
2022-08-17T17:40:53.797Z,7.68
2022-08-17T17:43:44.595Z,7.03
2022-08-17T17:46:39.709Z,6.88
2022-08-17T17:49:06.536Z,6.45
2022-08-17T17:52:06.566Z,7.43
2022-08-17T17:54:56.175Z,7.32
2022-08-17T17:57:47.726Z,6.90
2022-08-17T18:00:23.442Z,7.03
2022-08-17T18:03:26.608Z,7.20
2022-08-17T18:06:24.408Z,6.82
2022-08-17T18:09:09.061Z,7.10
2022-08-17T18:11:42.754Z,6.20
2022-08-17T18:14:47.085Z,6.20
2022-08-17T18:17:14.487Z,6.50
2022-08-17T18:19:41.503Z,7.32
2022-08-17T18:22:15.259Z,6.32
2022-08-17T18:24:45.510Z,6.72
2022-08-17T18:27:25.758Z,6.88
2022-08-17T18:29:55.548Z,7.15
2022-08-17T18:32:31.095Z,6.65
2022-08-17T18:37:38.930Z,7.13
2022-08-17T18:40:31.148Z,10.60
2022-08-17T18:43:00.781Z,6.18
2022-08-17T18:45:33.453Z,6.70
2022-08-17T18:48:00.453Z,6.72
2022-08-17T18:50:34.798Z,5.75
2022-08-17T18:53:20.789Z,6.30
2022-08-17T18:56:31.213Z,6.50
2022-08-17T18:58:57.770Z,6.10
2022-08-17T19:01:41.704Z,6.22
2022-08-17T19:04:27.944Z,5.47
2022-08-17T19:07:05.363Z,5.53
2022-08-17T19:09:35.900Z,6.15
2022-08-17T19:12:06.093Z,6.05
2022-08-17T19:14:33.022Z,7.32
2022-08-17T19:17:09.165Z,6.80
2022-08-17T19:20:09.301Z,7.72
2022-08-17T19:22:56.435Z,8.40
2022-08-17T19:25:29.203Z,8.23
2022-08-17T19:28:06.329Z,9.02
2022-08-17T19:30:54.241Z,10.02
2022-08-17T19:33:20.858Z,10.07
2022-08-17T19:36:00.894Z,10.43
2022-08-17T19:39:03.317Z,10.13
2022-08-17T19:41:54.772Z,10.80
2022-08-17T19:44:34.817Z,10.85
2022-08-17T19:47:54.223Z,12.48
2022-08-17T19:50:38.440Z,11.93
2022-08-17T19:53:41.706Z,12.32
2022-08-17T19:56:34.253Z,12.48
2022-08-17T19:59:03.442Z,13.00
2022-08-17T20:02:19.189Z,11.68
2022-08-17T20:04:49.032Z,12.13
2022-08-17T20:07:22.043Z,11.90
2022-08-17T20:10:04.786Z,13.07
2022-08-17T20:12:36.676Z,12.82
2022-08-17T20:15:16.912Z,11.93
2022-08-17T20:17:46.644Z,10.35
2022-08-17T20:20:30.407Z,13.05
2022-08-17T20:23:18.959Z,12.07
2022-08-17T20:26:15.915Z,11.93
2022-08-17T20:29:03.978Z,14.63
2022-08-17T20:31:39.528Z,14.18
2022-08-17T20:34:38.081Z,13.77
2022-08-17T20:37:09.427Z,13.13
2022-08-17T20:39:45.582Z,15.48
2022-08-17T20:42:21.018Z,16.02
2022-08-17T20:45:02.709Z,17.50
2022-08-17T20:47:55.131Z,15.27
2022-08-17T20:50:44.045Z,16.27
2022-08-17T20:53:15.164Z,15.77
2022-08-17T20:55:52.276Z,16.38
2022-08-17T20:58:21.088Z,16.60
2022-08-17T21:00:56.677Z,16.88
2022-08-17T21:03:23.526Z,17.05
2022-08-17T21:06:17.065Z,17.88
2022-08-17T21:08:53.785Z,18.60
2022-08-17T21:11:56.989Z,17.60
2022-08-17T21:14:31.393Z,19.27
2022-08-17T21:17:12.081Z,17.95
2022-08-17T21:20:11.455Z,17.73
2022-08-17T21:22:47.835Z,18.98
2022-08-17T21:25:52.829Z,19.17
2022-08-17T21:29:00.474Z,19.42
2022-08-17T21:31:33.199Z,20.33
2022-08-17T21:34:16.777Z,22.83
2022-08-17T21:36:44.550Z,20.83
2022-08-17T21:39:17.308Z,22.00
2022-08-17T21:41:54.398Z,20.67
2022-08-17T21:44:47.125Z,20.45
2022-08-17T21:47:13.840Z,21.83
2022-08-17T21:49:40.380Z,21.60
2022-08-17T21:52:07.551Z,22.52
2022-08-17T21:54:38.741Z,22.90
2022-08-17T21:57:15.584Z,23.23
2022-08-17T21:59:44.180Z,21.67
2022-08-17T22:02:51.861Z,22.90
2022-08-17T22:05:31.087Z,22.65
2022-08-17T22:08:03.924Z,24.65
2022-08-17T22:10:35.041Z,24.83
2022-08-17T22:13:23.169Z,24.88
2022-08-17T22:15:51.022Z,25.67
2022-08-17T22:18:25.085Z,25.67
2022-08-17T22:20:55.010Z,25.65
2022-08-17T22:23:41.677Z,26.35
2022-08-17T22:26:12.723Z,23.98
2022-08-17T22:28:54.444Z,26.88
2022-08-17T22:31:23.067Z,25.35
2022-08-17T22:34:02.786Z,26.88
2022-08-17T22:36:33.974Z,26.48
2022-08-17T22:39:22.994Z,28.98
2022-08-17T22:42:00.726Z,29.08
2022-08-17T22:44:29.423Z,29.77
2022-08-17T22:47:26.831Z,31.40
2022-08-17T22:49:58.352Z,30.23
2022-08-17T22:52:33.916Z,31.88
2022-08-17T22:55:23.727Z,35.75
2022-08-17T22:58:09.496Z,32.42
2022-08-17T23:00:41.980Z,34.90
2022-08-17T23:03:14.491Z,32.25
2022-08-17T23:05:44.878Z,32.38
2022-08-17T23:08:12.719Z,32.90
2022-08-17T23:10:41.625Z,33.60
2022-08-17T23:13:11.830Z,34.50
2022-08-17T23:15:40.426Z,33.70
2022-08-17T23:18:07.736Z,35.72
2022-08-17T23:20:36.464Z,35.40
2022-08-17T23:23:06.695Z,34.55
2022-08-17T23:25:35.150Z,32.40
2022-08-17T23:28:05.079Z,34.05
2022-08-17T23:30:35.404Z,32.60
2022-08-17T23:33:08.822Z,35.45
2022-08-17T23:35:39.889Z,33.83
2022-08-17T23:38:11.604Z,36.42
2022-08-17T23:40:39.653Z,33.50
2022-08-17T23:43:25.370Z,35.30
2022-08-17T23:45:55.284Z,34.00
2022-08-17T23:48:30.343Z,34.05
2022-08-17T23:51:09.771Z,33.78
2022-08-17T23:53:41.923Z,33.20
2022-08-17T23:56:11.202Z,33.30
2022-08-17T23:58:42.892Z,34.25
